Terminal Aerodrome Forecast
Issued by NWS Milwaukee/Sullivan, WI

Home | Current Version | Previous Version | Text Only | Print | Product List | Glossary On
Versions: 1 2 3 4 5 6 7 8 9 10 11 12 13 14 15 16 17 18 19 20 21 22 23 24 25 26 27 28 29 30 31 32 33 34 35 36
000
FTUS43 KMKX 281603 AAC
TAFMSN
TAF AMD
KMSN 281603Z 2816/2912 VRB04KT 5SM BR OVC004
     FM281800 13004KT P6SM FEW004 FEW025
     FM290500 00000KT 5SM BR FEW200
     FM290900 00000KT 2SM BR SCT090=

USA.gov is the U.S. government's official web portal to all federal, state and local government web resources and services.